createdAt,value
2022-11-26T00:01:28.089Z,6.22
2022-11-26T00:03:56.955Z,5.43
2022-11-26T00:06:34.689Z,5.88
2022-11-26T00:09:02.395Z,4.93
2022-11-26T00:11:29.426Z,5.75
2022-11-26T00:13:56.093Z,6.30
2022-11-26T00:16:22.708Z,4.93
2022-11-26T00:18:49.525Z,5.13
2022-11-26T00:21:22.859Z,5.72
2022-11-26T00:23:49.842Z,5.28
2022-11-26T00:26:18.912Z,5.90
2022-11-26T00:28:55.734Z,6.25
2022-11-26T00:31:23.476Z,5.72
2022-11-26T00:33:50.290Z,6.00
2022-11-26T00:36:25.358Z,5.53
2022-11-26T00:38:54.843Z,6.93
2022-11-26T00:41:23.706Z,6.68
2022-11-26T00:43:50.418Z,6.10
2022-11-26T00:46:19.635Z,6.18
2022-11-26T00:48:46.604Z,5.68
2022-11-26T00:51:18.393Z,4.75
2022-11-26T00:53:45.651Z,4.22
2022-11-26T00:56:18.580Z,5.18
2022-11-26T00:58:46.368Z,5.38
2022-11-26T01:01:15.254Z,6.60
2022-11-26T01:03:43.048Z,6.22
2022-11-26T01:06:21.859Z,4.78
2022-11-26T01:08:48.893Z,4.40
2022-11-26T01:11:20.725Z,6.38
2022-11-26T01:13:49.768Z,5.88
2022-11-26T01:16:25.260Z,5.30
2022-11-26T01:18:54.440Z,5.25
2022-11-26T01:21:22.702Z,6.07
2022-11-26T01:23:49.511Z,4.72
2022-11-26T01:26:18.810Z,6.30
2022-11-26T01:28:45.721Z,6.47
2022-11-26T01:31:24.051Z,5.00
2022-11-26T01:33:50.813Z,4.18
2022-11-26T01:36:17.409Z,4.53
2022-11-26T01:38:44.074Z,5.45
2022-11-26T01:41:35.002Z,5.18
2022-11-26T01:44:03.276Z,5.60
2022-11-26T01:46:31.007Z,5.65
2022-11-26T01:49:22.920Z,5.60
2022-11-26T01:52:09.168Z,5.60
2022-11-26T01:54:38.870Z,5.65
2022-11-26T01:57:24.646Z,5.65
2022-11-26T01:59:54.089Z,5.32
2022-11-26T02:02:25.737Z,5.10
2022-11-26T02:05:14.663Z,5.40
2022-11-26T02:07:41.520Z,5.03
2022-11-26T02:10:09.565Z,6.88
2022-11-26T02:12:37.477Z,5.00
2022-11-26T02:15:04.721Z,5.20
2022-11-26T02:17:44.168Z,4.85
2022-11-26T02:20:24.952Z,6.07
2022-11-26T02:23:03.893Z,5.20
2022-11-26T02:25:58.463Z,5.55
2022-11-26T02:28:39.557Z,4.72
2022-11-26T02:31:09.971Z,5.90
2022-11-26T02:34:18.524Z,4.93
2022-11-26T02:36:51.357Z,5.28
2022-11-26T02:39:21.690Z,5.72
2022-11-26T02:41:51.854Z,5.68
2022-11-26T02:44:22.880Z,5.03
2022-11-26T02:46:52.808Z,5.72
2022-11-26T02:49:21.140Z,5.05
2022-11-26T02:51:51.392Z,6.50
2022-11-26T02:54:19.065Z,6.30
2022-11-26T02:56:45.919Z,4.20
2022-11-26T02:59:14.596Z,4.95
2022-11-26T03:02:03.400Z,4.97
2022-11-26T03:04:39.518Z,4.57
2022-11-26T03:07:07.743Z,4.78
2022-11-26T03:10:00.329Z,4.50
2022-11-26T03:12:28.066Z,5.03
2022-11-26T03:14:55.484Z,5.63
2022-11-26T03:17:22.198Z,5.22
2022-11-26T03:19:49.029Z,5.20
2022-11-26T03:22:16.341Z,4.25
2022-11-26T03:24:43.077Z,5.30
2022-11-26T03:27:09.771Z,4.60
2022-11-26T03:29:36.526Z,4.43
2022-11-26T03:32:03.682Z,5.47
2022-11-26T03:34:30.449Z,5.43
2022-11-26T03:36:57.178Z,5.32
2022-11-26T03:39:23.915Z,4.95
2022-11-26T03:41:50.519Z,5.00
2022-11-26T03:44:17.232Z,4.65
2022-11-26T03:46:43.872Z,4.32
2022-11-26T03:49:10.616Z,4.60
2022-11-26T03:51:37.182Z,5.15
2022-11-26T03:54:03.834Z,4.75
2022-11-26T03:56:30.555Z,5.07
2022-11-26T03:58:57.154Z,4.65
2022-11-26T04:01:23.857Z,4.65
2022-11-26T04:03:50.535Z,5.20
2022-11-26T04:06:17.160Z,4.40
2022-11-26T04:08:44.017Z,4.47
2022-11-26T04:11:10.684Z,4.68
2022-11-26T04:13:37.381Z,5.00
2022-11-26T04:16:04.209Z,5.03
2022-11-26T04:18:31.096Z,4.75
2022-11-26T04:20:57.681Z,5.10
2022-11-26T04:23:24.419Z,4.30
2022-11-26T04:25:51.022Z,4.38
2022-11-26T04:28:17.683Z,4.55
2022-11-26T04:30:44.607Z,4.25
2022-11-26T04:33:11.320Z,4.20
2022-11-26T04:35:38.261Z,4.95
2022-11-26T04:38:04.919Z,4.55
2022-11-26T04:40:31.564Z,4.13
2022-11-26T04:42:58.203Z,3.72
2022-11-26T04:45:24.902Z,3.65
2022-11-26T04:47:51.768Z,3.80
2022-11-26T04:50:18.510Z,3.85
2022-11-26T04:52:48.337Z,3.67
2022-11-26T04:55:16.057Z,3.72
2022-11-26T04:57:42.960Z,4.53
2022-11-26T05:00:10.799Z,4.43
2022-11-26T05:02:37.430Z,4.70
2022-11-26T05:05:04.220Z,5.13
2022-11-26T05:07:30.895Z,5.05
2022-11-26T05:09:57.640Z,4.40
2022-11-26T05:12:24.338Z,4.05
2022-11-26T05:14:50.939Z,4.25
2022-11-26T05:17:17.692Z,4.05
2022-11-26T05:19:44.275Z,3.95
2022-11-26T05:22:10.879Z,4.40
2022-11-26T05:24:38.296Z,4.57
2022-11-26T05:27:05.065Z,4.18
2022-11-26T05:29:32.791Z,4.93
2022-11-26T05:31:59.554Z,3.65
2022-11-26T05:34:26.205Z,4.00
2022-11-26T05:36:52.779Z,4.38
2022-11-26T05:39:19.428Z,5.03
2022-11-26T05:41:45.990Z,3.58
2022-11-26T05:44:12.607Z,3.90
2022-11-26T05:46:40.768Z,4.55
2022-11-26T05:49:07.400Z,3.85
2022-11-26T05:51:34.412Z,3.85
2022-11-26T05:54:00.984Z,3.72
2022-11-26T05:56:27.568Z,3.95
2022-11-26T05:58:54.159Z,3.55
2022-11-26T06:01:20.703Z,3.67
2022-11-26T06:03:47.377Z,3.67
2022-11-26T06:06:14.282Z,3.78
2022-11-26T06:08:40.922Z,3.25
2022-11-26T06:11:07.648Z,3.88
2022-11-26T06:13:34.272Z,3.85
2022-11-26T06:16:00.902Z,3.60
2022-11-26T06:18:27.535Z,3.30
2022-11-26T06:20:54.504Z,3.80
2022-11-26T06:23:21.201Z,3.50
2022-11-26T06:25:48.292Z,3.65
2022-11-26T06:28:14.937Z,3.28
2022-11-26T06:30:44.599Z,3.20
2022-11-26T06:33:11.242Z,3.17
2022-11-26T06:35:37.922Z,3.45
2022-11-26T06:38:04.669Z,3.25
2022-11-26T06:40:31.411Z,3.40
2022-11-26T06:42:58.031Z,6.28
2022-11-26T06:45:24.965Z,4.32
2022-11-26T06:47:52.042Z,3.20
2022-11-26T06:50:21.221Z,3.10
2022-11-26T06:52:52.849Z,3.33
2022-11-26T06:55:19.936Z,3.92
2022-11-26T06:57:50.145Z,3.40
2022-11-26T07:00:16.891Z,3.85
2022-11-26T07:02:43.578Z,2.78
2022-11-26T07:05:10.271Z,3.30
2022-11-26T07:07:38.146Z,5.13
2022-11-26T07:10:05.507Z,3.40
2022-11-26T07:12:32.116Z,3.05
2022-11-26T07:14:58.881Z,2.90
2022-11-26T07:17:25.511Z,4.05
2022-11-26T07:19:52.129Z,2.55
2022-11-26T07:22:18.764Z,4.43
2022-11-26T07:24:45.767Z,2.72
2022-11-26T07:27:12.393Z,2.70
2022-11-26T07:29:39.019Z,2.95
2022-11-26T07:32:05.702Z,3.47
2022-11-26T07:34:32.477Z,3.45
2022-11-26T07:36:59.117Z,3.10
2022-11-26T07:39:25.710Z,3.17
2022-11-26T07:41:52.323Z,3.13
2022-11-26T07:44:18.973Z,3.67
2022-11-26T07:46:45.576Z,2.88
2022-11-26T07:49:13.565Z,4.10
2022-11-26T07:51:40.190Z,4.40
2022-11-26T07:54:07.987Z,2.90
2022-11-26T07:56:35.484Z,5.82
2022-11-26T07:59:02.452Z,3.90
2022-11-26T08:01:30.028Z,3.35
2022-11-26T08:03:57.686Z,2.40
2022-11-26T08:06:26.651Z,4.57
2022-11-26T08:08:53.523Z,5.38
2022-11-26T08:11:21.468Z,4.70
2022-11-26T08:13:49.033Z,3.78
2022-11-26T08:16:15.841Z,3.78
2022-11-26T08:18:42.993Z,3.58
2022-11-26T08:21:09.742Z,6.15
2022-11-26T08:23:36.611Z,3.00
2022-11-26T08:28:59.071Z,3.88
2022-11-26T08:31:27.791Z,5.78
2022-11-26T08:34:01.730Z,6.82
2022-11-26T08:36:29.543Z,8.68
2022-11-26T08:38:56.752Z,15.02
2022-11-26T08:41:23.734Z,25.25
2022-11-26T08:44:07.375Z,18.85
2022-11-26T08:46:39.094Z,8.93
2022-11-26T08:49:06.841Z,10.40
2022-11-26T08:51:33.649Z,9.27
2022-11-26T08:54:00.231Z,10.95
2022-11-26T08:56:26.936Z,7.28
2022-11-26T08:58:53.548Z,4.93
2022-11-26T09:01:21.466Z,11.60
2022-11-26T09:03:49.434Z,7.63
2022-11-26T09:06:16.340Z,5.18
2022-11-26T09:09:01.449Z,7.80
2022-11-26T09:11:28.605Z,12.27
2022-11-26T09:13:55.472Z,5.45
2022-11-26T09:16:22.608Z,5.05
2022-11-26T09:18:50.389Z,8.13
2022-11-26T09:21:17.150Z,7.45
2022-11-26T09:23:43.755Z,5.05
2022-11-26T09:26:10.474Z,6.15
2022-11-26T09:28:37.140Z,4.13
2022-11-26T09:31:03.695Z,7.40
2022-11-26T09:33:30.728Z,6.22
2022-11-26T09:36:07.976Z,3.92
2022-11-26T09:38:35.388Z,4.78
2022-11-26T09:41:37.480Z,8.98
2022-11-26T09:44:22.915Z,5.28
2022-11-26T09:47:11.905Z,6.13
2022-11-26T09:50:02.918Z,4.45
2022-11-26T09:52:34.785Z,4.80
2022-11-26T09:55:10.187Z,4.57
2022-11-26T09:57:42.274Z,5.50
2022-11-26T10:00:30.316Z,4.03
2022-11-26T10:02:57.892Z,5.03
2022-11-26T10:05:56.780Z,5.40
2022-11-26T10:08:47.697Z,3.20
2022-11-26T10:11:38.723Z,5.78
2022-11-26T10:14:28.571Z,6.15
2022-11-26T10:17:28.522Z,5.47
2022-11-26T10:19:58.052Z,4.30
2022-11-26T10:22:32.457Z,15.02
2022-11-26T10:24:59.826Z,13.02
2022-11-26T10:27:30.890Z,13.30
2022-11-26T10:30:30.712Z,10.43
2022-11-26T10:33:00.158Z,10.95
2022-11-26T10:35:29.154Z,5.10
2022-11-26T10:37:57.112Z,7.85
2022-11-26T10:40:26.412Z,5.47
2022-11-26T10:43:12.568Z,4.07
2022-11-26T10:45:42.793Z,5.18
2022-11-26T10:48:23.601Z,7.97
2022-11-26T10:50:59.555Z,5.88
2022-11-26T10:53:27.183Z,5.43
2022-11-26T10:55:57.146Z,8.02
2022-11-26T10:58:30.307Z,3.72
2022-11-26T11:01:02.992Z,6.30
2022-11-26T11:06:36.042Z,7.50
2022-11-26T11:09:22.799Z,6.80
2022-11-26T11:12:08.576Z,4.10
2022-11-26T11:14:39.577Z,5.15
2022-11-26T11:17:33.568Z,5.28
2022-11-26T11:20:06.662Z,7.45
2022-11-26T11:22:33.386Z,3.72
2022-11-26T11:25:00.276Z,4.43
2022-11-26T11:27:47.214Z,7.60
2022-11-26T11:30:28.243Z,6.88
2022-11-26T11:32:57.277Z,5.13
2022-11-26T11:35:31.026Z,4.90
2022-11-26T11:37:58.342Z,18.33
2022-11-26T11:40:29.063Z,6.65
2022-11-26T11:43:05.528Z,10.30
2022-11-26T11:45:53.416Z,8.02
2022-11-26T11:48:43.322Z,5.82
2022-11-26T11:51:28.242Z,5.10
2022-11-26T11:54:15.890Z,9.90
2022-11-26T11:56:50.573Z,5.63
2022-11-26T11:59:47.956Z,6.00
2022-11-26T12:02:40.117Z,4.68
2022-11-26T12:05:28.119Z,2.80
2022-11-26T12:08:28.852Z,5.25
2022-11-26T12:11:17.611Z,6.03
2022-11-26T12:13:51.061Z,7.80
2022-11-26T12:16:18.982Z,7.70
2022-11-26T12:19:19.194Z,7.88
2022-11-26T12:22:13.469Z,5.75
2022-11-26T12:25:01.223Z,6.30
2022-11-26T12:27:47.061Z,4.22
2022-11-26T12:30:20.620Z,3.17
2022-11-26T12:32:54.851Z,9.02
2022-11-26T12:35:32.136Z,5.43
2022-11-26T12:38:03.763Z,6.43
2022-11-26T12:40:48.171Z,5.75
2022-11-26T12:43:25.685Z,5.70
2022-11-26T12:45:59.383Z,3.78
2022-11-26T12:48:35.600Z,4.68
2022-11-26T12:51:18.499Z,4.65
2022-11-26T12:53:52.668Z,4.65
2022-11-26T12:56:42.633Z,5.28
2022-11-26T12:59:35.358Z,5.00
2022-11-26T13:02:24.780Z,3.53
2022-11-26T13:04:52.553Z,6.90
2022-11-26T13:07:36.159Z,3.72
2022-11-26T13:10:05.806Z,4.10
2022-11-26T13:12:54.946Z,4.15
2022-11-26T13:15:44.133Z,3.80
2022-11-26T13:18:30.551Z,3.50
2022-11-26T13:21:21.888Z,2.85
2022-11-26T13:24:40.055Z,3.15
2022-11-26T13:27:22.042Z,2.75
2022-11-26T13:30:10.032Z,5.32
2022-11-26T13:32:45.414Z,4.55
2022-11-26T13:35:33.522Z,3.03
2022-11-26T13:38:09.243Z,3.08
2022-11-26T13:41:23.977Z,3.72
2022-11-26T13:44:28.202Z,2.40
2022-11-26T13:47:04.080Z,3.38
2022-11-26T13:49:30.770Z,2.47
2022-11-26T13:52:11.097Z,4.78
2022-11-26T13:54:51.158Z,2.75
2022-11-26T13:57:24.571Z,3.15
2022-11-26T13:59:53.519Z,4.10
2022-11-26T14:02:32.598Z,4.15
2022-11-26T14:05:11.725Z,3.33
2022-11-26T14:07:38.641Z,2.92
2022-11-26T14:10:08.315Z,4.22
2022-11-26T14:13:03.149Z,2.25
2022-11-26T14:15:41.733Z,2.85
2022-11-26T14:18:10.011Z,3.78
2022-11-26T14:21:01.619Z,3.13
2022-11-26T14:23:48.094Z,4.60
2022-11-26T14:26:34.595Z,3.30
2022-11-26T14:29:06.961Z,4.82
2022-11-26T14:31:35.477Z,3.50
2022-11-26T14:34:39.038Z,4.03
2022-11-26T14:37:18.154Z,5.70
2022-11-26T14:39:45.258Z,2.65
2022-11-26T14:42:16.851Z,3.38
2022-11-26T14:44:44.164Z,3.50
2022-11-26T14:47:17.600Z,3.28
2022-11-26T14:49:48.996Z,4.15
2022-11-26T14:52:22.168Z,7.65
2022-11-26T14:54:53.940Z,5.00
2022-11-26T14:57:24.884Z,9.73
2022-11-26T14:59:59.746Z,2.85
2022-11-26T15:02:28.889Z,3.97
2022-11-26T15:05:04.467Z,6.00
2022-11-26T15:07:31.580Z,3.83
2022-11-26T15:10:24.679Z,3.63
2022-11-26T15:12:52.183Z,4.18
2022-11-26T15:15:23.862Z,4.80
2022-11-26T15:17:55.245Z,3.78
2022-11-26T15:20:21.920Z,5.68
2022-11-26T15:22:57.050Z,8.45
2022-11-26T15:25:32.462Z,3.45
2022-11-26T15:28:16.132Z,3.30
2022-11-26T15:30:53.773Z,6.65
2022-11-26T15:33:20.576Z,4.35
2022-11-26T15:35:50.494Z,3.38
2022-11-26T15:38:19.959Z,5.72
2022-11-26T15:40:57.170Z,3.70
2022-11-26T15:43:23.917Z,3.75
2022-11-26T15:45:52.187Z,4.93
2022-11-26T15:48:51.898Z,6.18
2022-11-26T15:51:32.184Z,3.80
2022-11-26T15:54:03.567Z,3.13
2022-11-26T15:56:37.885Z,4.68
2022-11-26T15:59:12.321Z,4.05
2022-11-26T16:01:39.850Z,3.08
2022-11-26T16:04:22.629Z,3.95
2022-11-26T16:06:49.356Z,2.80
2022-11-26T16:09:18.161Z,2.83
2022-11-26T16:11:59.552Z,2.47
2022-11-26T16:14:32.580Z,6.53
2022-11-26T16:17:08.288Z,1.80
2022-11-26T16:19:36.265Z,2.42
2022-11-26T16:22:04.669Z,2.08
2022-11-26T16:24:35.752Z,2.22
2022-11-26T16:27:26.820Z,2.42
2022-11-26T16:29:53.665Z,2.85
2022-11-26T16:32:20.815Z,1.75
2022-11-26T16:34:47.428Z,2.72
2022-11-26T16:37:19.894Z,2.75
2022-11-26T16:39:47.427Z,3.40
2022-11-26T16:42:23.006Z,3.28
2022-11-26T16:44:49.936Z,1.75
2022-11-26T16:47:26.507Z,2.40
2022-11-26T16:49:53.836Z,2.50
2022-11-26T16:52:21.004Z,2.85
2022-11-26T16:54:48.040Z,3.90
2022-11-26T16:57:19.480Z,1.90
2022-11-26T16:59:50.463Z,3.22
2022-11-26T17:02:19.232Z,3.35
2022-11-26T17:04:46.452Z,1.55
2022-11-26T17:07:25.322Z,1.98
2022-11-26T17:09:52.771Z,1.50
2022-11-26T17:12:25.113Z,2.05
2022-11-26T17:17:32.958Z,3.13
2022-11-26T17:19:59.648Z,1.77
2022-11-26T17:22:26.366Z,2.38
2022-11-26T17:24:53.108Z,1.25
2022-11-26T17:27:21.019Z,3.50
2022-11-26T17:29:47.954Z,2.13
2022-11-26T17:32:19.458Z,1.45
2022-11-26T17:34:46.730Z,1.42
2022-11-26T17:37:23.735Z,2.75
2022-11-26T17:39:50.488Z,2.25
2022-11-26T17:42:19.804Z,2.45
2022-11-26T17:44:47.472Z,2.30
2022-11-26T17:47:17.664Z,2.35
2022-11-26T17:49:45.567Z,2.22
2022-11-26T17:52:13.120Z,2.75
2022-11-26T17:54:39.886Z,1.30
2022-11-26T17:57:06.848Z,1.60
2022-11-26T17:59:33.941Z,1.88
2022-11-26T18:02:02.518Z,1.90
2022-11-26T18:04:29.357Z,4.13
2022-11-26T18:07:02.737Z,3.30
2022-11-26T18:09:29.310Z,3.95
2022-11-26T18:11:56.735Z,5.35
2022-11-26T18:14:23.845Z,6.25
2022-11-26T18:16:50.667Z,7.80
2022-11-26T18:19:19.223Z,13.98
2022-11-26T18:21:46.283Z,11.82
2022-11-26T18:24:13.697Z,16.17
2022-11-26T18:26:40.632Z,18.00
2022-11-26T18:29:07.843Z,16.55
2022-11-26T18:31:39.309Z,21.25
2022-11-26T18:34:07.105Z,20.40
2022-11-26T18:36:33.763Z,20.85
2022-11-26T18:39:00.413Z,22.63
2022-11-26T18:41:26.998Z,22.58
2022-11-26T18:43:53.599Z,22.45
2022-11-26T18:46:20.333Z,24.55
2022-11-26T18:48:48.717Z,25.08
2022-11-26T18:51:16.577Z,22.83
2022-11-26T18:53:44.340Z,23.52
2022-11-26T18:56:13.433Z,24.63
2022-11-26T18:58:40.285Z,24.05
2022-11-26T19:01:17.885Z,22.40
2022-11-26T19:03:47.752Z,24.95
2022-11-26T19:06:16.762Z,21.52
2022-11-26T19:08:43.635Z,21.42
2022-11-26T19:11:12.277Z,23.27
2022-11-26T19:13:39.200Z,23.73
2022-11-26T19:16:15.845Z,22.95
2022-11-26T19:18:43.449Z,22.73
2022-11-26T19:21:36.483Z,21.23
2022-11-26T19:24:06.235Z,22.13
2022-11-26T19:26:33.535Z,20.30
2022-11-26T19:29:02.509Z,24.73
2022-11-26T19:31:30.545Z,20.98
2022-11-26T19:33:58.276Z,21.90
2022-11-26T19:36:24.951Z,21.77
2022-11-26T19:38:56.543Z,19.40
2022-11-26T19:41:25.850Z,20.73
2022-11-26T19:43:53.246Z,24.05
2022-11-26T19:46:22.265Z,20.42
2022-11-26T19:48:50.306Z,19.30
2022-11-26T19:51:18.762Z,19.00
2022-11-26T19:53:50.055Z,19.95
2022-11-26T19:56:19.762Z,19.20
2022-11-26T19:58:46.800Z,18.92
2022-11-26T20:01:16.485Z,19.23
2022-11-26T20:03:43.829Z,18.08
2022-11-26T20:06:16.639Z,16.67
2022-11-26T20:08:44.360Z,16.95
2022-11-26T20:11:11.473Z,15.98
2022-11-26T20:13:40.620Z,16.33
2022-11-26T20:16:12.825Z,16.73
2022-11-26T20:18:40.411Z,17.98
2022-11-26T20:21:09.703Z,22.65
2022-11-26T20:23:37.607Z,16.42
2022-11-26T20:26:12.020Z,14.65
2022-11-26T20:28:38.699Z,12.40
2022-11-26T20:31:05.958Z,14.23
2022-11-26T20:33:32.657Z,14.60
2022-11-26T20:35:59.357Z,13.75
2022-11-26T20:38:25.959Z,14.75
2022-11-26T20:40:52.617Z,15.55
2022-11-26T20:43:19.211Z,14.48
2022-11-26T20:45:46.880Z,13.07
2022-11-26T20:48:13.536Z,13.48
2022-11-26T20:50:40.503Z,13.85
2022-11-26T20:53:07.159Z,13.60
2022-11-26T20:55:33.848Z,13.80
2022-11-26T20:58:00.498Z,14.77
2022-11-26T21:00:27.776Z,12.27
2022-11-26T21:02:54.755Z,13.40
2022-11-26T21:05:23.067Z,13.68
2022-11-26T21:07:50.970Z,12.43
2022-11-26T21:10:18.201Z,12.38
2022-11-26T21:12:44.827Z,11.77
2022-11-26T21:15:11.795Z,13.52
2022-11-26T21:17:38.584Z,13.48
2022-11-26T21:20:06.422Z,12.48
2022-11-26T21:22:33.010Z,13.30
2022-11-26T21:24:59.607Z,12.32
2022-11-26T21:27:26.144Z,12.85
2022-11-26T21:29:53.024Z,11.57
2022-11-26T21:32:19.669Z,10.27
2022-11-26T21:34:46.299Z,10.82
2022-11-26T21:37:12.977Z,10.43
2022-11-26T21:39:39.774Z,11.02
2022-11-26T21:42:06.641Z,9.50
2022-11-26T21:44:33.331Z,10.60
2022-11-26T21:47:02.666Z,9.20
2022-11-26T21:49:31.058Z,11.68
2022-11-26T21:51:58.385Z,11.40
2022-11-26T21:54:26.371Z,11.10
2022-11-26T21:56:53.415Z,9.05
2022-11-26T21:59:20.117Z,8.90
2022-11-26T22:01:47.238Z,10.48
2022-11-26T22:04:18.435Z,9.23
2022-11-26T22:06:47.777Z,8.38
2022-11-26T22:09:15.603Z,9.38
2022-11-26T22:11:44.184Z,8.93
2022-11-26T22:14:14.643Z,7.25
2022-11-26T22:16:41.936Z,9.63
2022-11-26T22:19:08.809Z,8.10
2022-11-26T22:21:40.691Z,9.63
2022-11-26T22:24:10.522Z,8.05
2022-11-26T22:26:37.829Z,8.27
2022-11-26T22:29:04.940Z,8.25
2022-11-26T22:31:36.474Z,8.35
2022-11-26T22:34:15.152Z,6.53
2022-11-26T22:36:43.505Z,7.65
2022-11-26T22:39:15.818Z,7.53
2022-11-26T22:41:43.568Z,7.40
2022-11-26T22:44:10.749Z,8.80
2022-11-26T22:46:38.468Z,7.38
2022-11-26T22:49:06.132Z,7.45
2022-11-26T22:51:34.411Z,6.05
2022-11-26T22:54:03.723Z,6.43
2022-11-26T22:56:31.117Z,6.85
2022-11-26T22:58:57.852Z,7.95
2022-11-26T23:01:27.092Z,7.20
2022-11-26T23:03:54.568Z,7.55
2022-11-26T23:06:23.308Z,7.13
2022-11-26T23:08:50.807Z,7.15
2022-11-26T23:11:23.902Z,8.35
2022-11-26T23:13:50.904Z,7.00
2022-11-26T23:16:19.540Z,6.80
2022-11-26T23:18:47.006Z,7.10
2022-11-26T23:21:17.365Z,6.05
2022-11-26T23:23:44.498Z,5.90
2022-11-26T23:26:14.068Z,7.50
2022-11-26T23:28:40.965Z,7.78
2022-11-26T23:31:11.568Z,6.90
2022-11-26T23:33:38.371Z,6.95
2022-11-26T23:36:05.358Z,8.02
2022-11-26T23:38:32.112Z,6.32
2022-11-26T23:41:01.524Z,6.43
2022-11-26T23:43:29.284Z,6.32
2022-11-26T23:46:04.600Z,5.38
2022-11-26T23:48:32.636Z,5.90
2022-11-26T23:50:59.724Z,6.47
2022-11-26T23:53:27.293Z,5.72
2022-11-26T23:55:53.951Z,5.65
2022-11-26T23:58:20.633Z,6.03
